Terminal Aerodrome Forecast
Issued by NWS Wilmington, OH

Home | Current Version | Previous Version | Text Only | Print | Product List | Glossary On
Versions: 1 2 3 4 5 6 7 8 9 10 11 12 13 14 15 16 17 18 19 20 21 22 23 24 25
764
FTUS41 KILN 031700 AAB
TAFDAY
TAF AMD
KDAY 031700Z 0317/0412 28005KT P6SM OVC028
     FM032200 VRB03KT P6SM BKN035
     FM041000 12004KT P6SM FEW040 BKN150=

USA.gov is the U.S. government's official web portal to all federal, state and local government web resources and services.